메인 페이지
METAR-TAF:

METAR-TAF

공항 :

호세 마르티 국제공항

아바나, 쿠바

위도: 22-59N, 경도: 082-24W, 고도: 59m

현재 날씨관측

예보는 1 시간 10분 전, 00:55시(UTC)에 발표되었습니다.
3kt
온도 26°C
습도 89%
기압 1015 hPa
시정: 9000m
고도 3000ft 상공 구름 조금

METAR: MUHA 250055Z 10003KT 9000 FEW030 26/24 Q1015

시각: 22:05 (02:05 UTC)

예보

예보는 3 시간 5분 전, 23:00시(UTC)에 발표되었습니다.
예보 대상 시간: 25일 00시부터 25일 24시까지 (UTC)
5kt
시정: 9000m
고도 3000ft 상공 구름 조금
전환 중
25일 06시부터 25일 08시까지 (UTC)
여러 방향의 바람 3kt
전환 중
25일 14시부터 25일 16시까지 (UTC)
10kt
일시적
25일 19시부터 25일 23시까지 (UTC)
여러 방향의 바람 10kt
시정: 4000m
고도 2000ft 상공 구름 조금, 적란운.
고도 3000ft 상공 구름 많음
뇌우, 비

TAF: MUHA 242300Z 2500/2524 08005KT 9000 FEW030 BECMG 2506/2508 VRB03KT BECMG 2514/2516 10010KT TEMPO 2519/2523 VRB10KT 4000 TSRA FEW020CB BKN030

4,000개 이상의 공항 관측 자료 및 예보 (METAR 및 TAF 보고).

지도상에서 검색 가능한 기상관측소가 노란 점과 빨간 점으로 표시되어 있습니다.

기상관측소 명을 보려면 표시 위로 마우스를 이동하세요.

날씨 관측과 예보를 보려면 클릭하세요.

지도 변경 : 확대하려면 엑스 표시가 있는 녹색 버튼, 축소하려면 빼기 표시가 있는 녹색 버튼, 다음 페이지의 지도를 보려면 녹색 화살표를 클릭하세요.


METAR-TAF: